Time,TemperatureF,DewpointF,PressureIn,WindDirection,WindDirectionDegrees,WindSpeedMPH,WindSpeedGustMPH,Humidity,HourlyPrecipIn,Conditions,Clouds,dailyrainin,SoftwareType,DateUTC
2013-06-03 00:13:00,56.3,45.0,29.83,NE,55,3.0,12.0,66,0.00,,,0.00,weatherlink.com 1.10,2013-06-03 08:13:00,
2013-06-03 00:29:00,55.5,45.0,29.84,SW,232,1.0,8.0,68,0.00,,,0.00,weatherlink.com 1.10,2013-06-03 08:29:00,
2013-06-03 00:44:00,55.5,45.0,29.84,NW,314,1.0,10.0,68,0.00,,,0.00,weatherlink.com 1.10,2013-06-03 08:44:00,
2013-06-03 00:59:00,55.2,45.0,29.84,NW,310,2.0,9.0,69,0.00,,,0.00,weatherlink.com 1.10,2013-06-03 08:59:00,
2013-06-03 01:14:00,55.1,45.0,29.84,West,278,2.0,9.0,69,0.00,,,0.00,weatherlink.com 1.10,2013-06-03 09:14:00,
2013-06-03 01:29:00,54.7,45.0,29.84,West,274,2.0,8.0,70,0.00,,,0.00,weatherlink.com 1.10,2013-06-03 09:29:00,
2013-06-03 01:44:00,54.3,45.0,29.85,West,270,0.0,7.0,71,0.00,,,0.00,weatherlink.com 1.10,2013-06-03 09:44:00,
2013-06-03 01:59:00,53.9,45.0,29.85,WSW,257,2.0,6.0,72,0.00,,,0.00,weatherlink.com 1.10,2013-06-03 09:59:00,
2013-06-03 02:14:00,53.6,45.0,29.85,WNW,295,4.0,6.0,73,0.00,,,0.00,weatherlink.com 1.10,2013-06-03 10:14:00,
2013-06-03 02:29:00,53.4,45.0,29.85,SE,129,2.0,8.0,73,0.00,,,0.00,weatherlink.com 1.10,2013-06-03 10:29:00,
2013-06-03 02:44:00,53.3,45.0,29.84,NW,321,4.0,9.0,73,0.00,,,0.00,weatherlink.com 1.10,2013-06-03 10:44:00,
2013-06-03 02:59:00,52.8,45.0,29.84,WSW,245,0.0,6.0,74,0.00,,,0.00,weatherlink.com 1.10,2013-06-03 10:59:00,
2013-06-03 03:14:00,52.6,45.0,29.85,NW,322,0.0,8.0,74,0.00,,,0.00,weatherlink.com 1.10,2013-06-03 11:14:00,
2013-06-03 03:29:00,52.4,45.0,29.85,WNW,285,1.0,4.0,75,0.00,,,0.00,weatherlink.com 1.10,2013-06-03 11:29:00,
2013-06-03 03:44:00,52.3,45.0,29.85,NW,313,1.0,5.0,76,0.00,,,0.00,weatherlink.com 1.10,2013-06-03 11:44:00,
2013-06-03 03:59:00,52.2,45.0,29.85,West,262,1.0,3.0,76,0.00,,,0.00,weatherlink.com 1.10,2013-06-03 11:59:00,
2013-06-03 04:14:00,52.2,45.0,29.86,WSW,257,1.0,2.0,76,0.00,,,0.00,weatherlink.com 1.10,2013-06-03 12:14:00,
2013-06-03 04:29:00,52.2,45.0,29.85,WSW,255,0.0,1.0,76,0.00,,,0.00,weatherlink.com 1.10,2013-06-03 12:29:00,
2013-06-03 04:44:00,52.0,45.0,29.85,SW,234,0.0,1.0,77,0.00,,,0.00,weatherlink.com 1.10,2013-06-03 12:44:00,
2013-06-03 04:59:00,51.8,45.0,29.85,West,271,0.0,3.0,78,0.00,,,0.00,weatherlink.com 1.10,2013-06-03 12:59:00,
2013-06-03 05:14:00,51.6,46.0,29.84,West,270,0.0,2.0,80,0.00,,,0.00,weatherlink.com 1.10,2013-06-03 13:14:00,
2013-06-03 05:29:00,51.1,46.0,29.84,WSW,249,0.0,0.0,84,0.00,,,0.00,weatherlink.com 1.10,2013-06-03 13:29:00,
2013-06-03 05:44:00,50.7,47.0,29.84,WSW,249,0.0,0.0,86,0.01,,,0.01,weatherlink.com 1.10,2013-06-03 13:44:00,
2013-06-03 05:59:00,50.4,47.0,29.84,West,270,0.0,0.0,87,0.01,,,0.01,weatherlink.com 1.10,2013-06-03 13:59:00,
2013-06-03 06:14:00,49.9,47.0,29.84,West,270,0.0,0.0,89,0.01,,,0.01,weatherlink.com 1.10,2013-06-03 14:14:00,
2013-06-03 06:29:00,50.0,48.0,29.84,West,270,0.0,0.0,91,0.01,,,0.01,weatherlink.com 1.10,2013-06-03 14:29:00,
2013-06-03 06:44:00,49.9,47.0,29.84,West,269,0.0,0.0,90,0.00,,,0.01,weatherlink.com 1.10,2013-06-03 14:44:00,
2013-06-03 06:59:00,49.8,47.0,29.84,West,270,0.0,0.0,91,0.00,,,0.01,weatherlink.com 1.10,2013-06-03 14:59:00,
2013-06-03 07:14:00,50.7,48.0,29.83,West,269,0.0,0.0,89,0.00,,,0.01,weatherlink.com 1.10,2013-06-03 15:14:00,
2013-06-03 07:29:00,50.8,47.0,29.83,West,262,0.0,2.0,88,0.00,,,0.01,weatherlink.com 1.10,2013-06-03 15:29:00,
2013-06-03 07:44:00,51.0,48.0,29.83,WSW,252,0.0,1.0,89,0.00,,,0.01,weatherlink.com 1.10,2013-06-03 15:44:00,
2013-06-03 07:59:00,51.4,48.0,29.83,WNW,291,0.0,1.0,87,0.00,,,0.01,weatherlink.com 1.10,2013-06-03 15:59:00,
2013-06-03 08:14:00,51.4,47.0,29.82,West,267,1.0,1.0,85,0.00,,,0.01,weatherlink.com 1.10,2013-06-03 16:14:00,
2013-06-03 08:29:00,52.0,48.0,29.82,West,260,0.0,0.0,85,0.00,,,0.01,weatherlink.com 1.10,2013-06-03 16:29:00,
2013-06-03 08:44:00,52.9,48.0,29.82,North,349,1.0,3.0,84,0.00,,,0.01,weatherlink.com 1.10,2013-06-03 16:44:00,
2013-06-03 08:59:00,53.4,47.0,29.81,South,188,0.0,3.0,80,0.00,,,0.01,weatherlink.com 1.10,2013-06-03 16:59:00,
2013-06-03 09:14:00,54.0,47.0,29.81,West,259,0.0,2.0,77,0.00,,,0.01,weatherlink.com 1.10,2013-06-03 17:14:00,
2013-06-03 09:29:00,54.0,47.0,29.81,West,270,0.0,3.0,77,0.00,,,0.01,weatherlink.com 1.10,2013-06-03 17:29:00,
2013-06-03 09:44:00,54.0,45.0,29.81,West,279,1.0,5.0,72,0.00,,,0.01,weatherlink.com 1.10,2013-06-03 17:44:00,
2013-06-03 09:59:00,54.3,45.0,29.81,WNW,284,2.0,4.0,70,0.00,,,0.01,weatherlink.com 1.10,2013-06-03 17:59:00,
2013-06-03 10:15:00,54.4,44.0,29.80,West,277,2.0,5.0,69,0.00,,,0.01,weatherlink.com 1.10,2013-06-03 18:15:00,
2013-06-03 10:30:00,54.3,45.0,29.80,West,269,0.0,3.0,71,0.00,,,0.01,weatherlink.com 1.10,2013-06-03 18:30:00,
2013-06-03 10:45:00,54.6,46.0,29.80,West,269,0.0,2.0,73,0.00,,,0.01,weatherlink.com 1.10,2013-06-03 18:45:00,
2013-06-03 11:00:00,54.9,45.0,29.80,West,270,0.0,2.0,70,0.00,,,0.01,weatherlink.com 1.10,2013-06-03 19:00:00,
2013-06-03 11:15:00,55.3,46.0,29.79,WNW,290,0.0,2.0,72,0.00,,,0.01,weatherlink.com 1.10,2013-06-03 19:15:00,
2013-06-03 11:30:00,55.6,46.0,29.79,South,174,1.0,2.0,70,0.00,,,0.01,weatherlink.com 1.10,2013-06-03 19:30:00,
2013-06-03 11:45:00,55.3,46.0,29.79,SSW,212,0.0,3.0,71,0.00,,,0.01,weatherlink.com 1.10,2013-06-03 19:45:00,
2013-06-03 12:00:00,55.3,46.0,29.78,ESE,107,1.0,2.0,71,0.00,,,0.01,weatherlink.com 1.10,2013-06-03 20:00:00,
2013-06-03 12:15:00,55.3,46.0,29.78,West,274,1.0,3.0,71,0.00,,,0.01,weatherlink.com 1.10,2013-06-03 20:15:00,
2013-06-03 12:30:00,56.3,47.0,29.78,SW,217,0.0,1.0,70,0.00,,,0.01,weatherlink.com 1.10,2013-06-03 20:30:00,
2013-06-03 12:45:00,57.0,47.0,29.77,SE,133,0.0,0.0,69,0.00,,,0.01,weatherlink.com 1.10,2013-06-03 20:45:00,
2013-06-03 13:00:00,56.8,46.0,29.77,West,259,0.0,3.0,67,0.00,,,0.01,weatherlink.com 1.10,2013-06-03 21:00:00,
2013-06-03 13:15:00,57.1,46.0,29.76,SW,232,1.0,5.0,66,0.00,,,0.01,weatherlink.com 1.10,2013-06-03 21:15:00,
2013-06-03 13:30:00,57.8,46.0,29.76,WNW,290,2.0,5.0,64,0.00,,,0.01,weatherlink.com 1.10,2013-06-03 21:30:00,
2013-06-03 13:45:00,58.5,46.0,29.75,WSW,239,2.0,4.0,63,0.00,,,0.01,weatherlink.com 1.10,2013-06-03 21:45:00,
2013-06-03 14:00:00,59.6,45.0,29.75,NW,306,1.0,4.0,59,0.00,,,0.01,weatherlink.com 1.10,2013-06-03 22:00:00,
2013-06-03 14:15:00,60.3,47.0,29.75,ESE,117,1.0,3.0,61,0.00,,,0.01,weatherlink.com 1.10,2013-06-03 22:15:00,
2013-06-03 14:30:00,58.8,47.0,29.74,ESE,123,0.0,5.0,64,0.00,,,0.01,weatherlink.com 1.10,2013-06-03 22:30:00,
2013-06-03 14:45:00,59.2,47.0,29.74,South,174,1.0,5.0,64,0.00,,,0.01,weatherlink.com 1.10,2013-06-03 22:45:00,
2013-06-03 15:00:00,59.9,46.0,29.73,ESE,104,2.0,6.0,61,0.00,,,0.01,weatherlink.com 1.10,2013-06-03 23:00:00,
2013-06-03 15:15:00,59.4,46.0,29.73,SE,141,2.0,5.0,62,0.00,,,0.01,weatherlink.com 1.10,2013-06-03 23:15:00,
2013-06-03 15:30:00,59.6,47.0,29.73,SE,127,1.0,4.0,64,0.00,,,0.01,weatherlink.com 1.10,2013-06-03 23:30:00,
2013-06-03 15:45:00,59.3,46.0,29.72,South,176,0.0,6.0,62,0.00,,,0.01,weatherlink.com 1.10,2013-06-03 23:45:00,
2013-06-03 16:00:00,59.5,46.0,29.71,ESE,103,4.0,6.0,62,0.00,,,0.01,weatherlink.com 1.10,2013-06-04 00:00:00,
2013-06-03 16:15:00,60.8,47.0,29.71,NE,49,1.0,7.0,60,0.00,,,0.01,weatherlink.com 1.10,2013-06-04 00:15:00,
2013-06-03 16:30:00,60.9,46.0,29.70,East,98,3.0,6.0,58,0.00,,,0.01,weatherlink.com 1.10,2013-06-04 00:30:00,
2013-06-03 16:45:00,60.8,46.0,29.70,SE,132,2.0,5.0,59,0.00,,,0.01,weatherlink.com 1.10,2013-06-04 00:45:00,
2013-06-03 17:00:00,60.4,47.0,29.69,ENE,61,3.0,5.0,62,0.00,,,0.01,weatherlink.com 1.10,2013-06-04 01:00:00,
2013-06-03 17:16:00,61.2,46.0,29.69,ENE,78,3.0,9.0,58,0.00,,,0.01,weatherlink.com 1.10,2013-06-04 01:16:00,
2013-06-03 17:31:00,61.6,46.0,29.68,SW,215,3.0,7.0,58,0.00,,,0.01,weatherlink.com 1.10,2013-06-04 01:31:00,
2013-06-03 17:46:00,62.1,46.0,29.68,South,183,2.0,8.0,57,0.00,,,0.01,weatherlink.com 1.10,2013-06-04 01:46:00,
2013-06-03 18:01:00,61.0,46.0,29.68,ESE,123,1.0,4.0,58,0.00,,,0.01,weatherlink.com 1.10,2013-06-04 02:01:00,
2013-06-03 18:16:00,61.8,46.0,29.67,ESE,111,1.0,5.0,57,0.00,,,0.01,weatherlink.com 1.10,2013-06-04 02:16:00,
2013-06-03 18:31:00,61.2,47.0,29.67,West,259,1.0,5.0,59,0.00,,,0.01,weatherlink.com 1.10,2013-06-04 02:31:00,
2013-06-03 18:46:00,60.0,46.0,29.66,ESE,116,4.0,6.0,61,0.00,,,0.01,weatherlink.com 1.10,2013-06-04 02:46:00,
2013-06-03 19:01:00,59.5,48.0,29.66,ESE,112,5.0,6.0,66,0.00,,,0.01,weatherlink.com 1.10,2013-06-04 03:01:00,
2013-06-03 19:16:00,59.5,49.0,29.66,ESE,122,1.0,4.0,68,0.00,,,0.01,weatherlink.com 1.10,2013-06-04 03:16:00,
2013-06-03 19:31:00,59.0,49.0,29.65,SSE,148,3.0,5.0,69,0.00,,,0.01,weatherlink.com 1.10,2013-06-04 03:31:00,
2013-06-03 20:01:00,58.2,49.0,29.65,SE,139,1.0,6.0,71,0.00,,,0.01,weatherlink.com 1.10,2013-06-04 04:01:00,
2013-06-03 20:16:00,57.4,49.0,29.65,WSW,248,4.0,9.0,73,0.00,,,0.01,weatherlink.com 1.10,2013-06-04 04:16:00,
2013-06-03 20:31:00,56.8,49.0,29.65,SW,214,1.0,4.0,75,0.00,,,0.01,weatherlink.com 1.10,2013-06-04 04:31:00,
2013-06-03 20:46:00,56.9,48.0,29.64,ESE,107,2.0,3.0,73,0.00,,,0.01,weatherlink.com 1.10,2013-06-04 04:46:00,
2013-06-03 21:01:00,56.6,49.0,29.64,ESE,111,0.0,3.0,75,0.00,,,0.01,weatherlink.com 1.10,2013-06-04 05:01:00,
2013-06-03 21:16:00,56.1,49.0,29.64,East,84,2.0,3.0,76,0.00,,,0.01,weatherlink.com 1.10,2013-06-04 05:16:00,
2013-06-03 21:46:00,55.2,48.0,29.64,ESE,111,1.0,3.0,78,0.00,,,0.01,weatherlink.com 1.10,2013-06-04 05:46:00,
2013-06-03 22:01:00,54.7,48.0,29.63,ESE,110,1.0,2.0,78,0.00,,,0.01,weatherlink.com 1.10,2013-06-04 06:01:00,
2013-06-03 22:16:00,54.4,48.0,29.63,East,90,2.0,2.0,78,0.00,,,0.01,weatherlink.com 1.10,2013-06-04 06:16:00,
2013-06-03 22:46:00,53.6,47.0,29.62,ESE,120,0.0,2.0,79,0.00,,,0.01,weatherlink.com 1.10,2013-06-04 06:46:00,
2013-06-03 23:01:00,53.4,47.0,29.62,ESE,104,0.0,1.0,79,0.00,,,0.01,weatherlink.com 1.10,2013-06-04 07:01:00,
2013-06-03 23:16:00,53.2,47.0,29.62,East,94,0.0,0.0,79,0.00,,,0.01,weatherlink.com 1.10,2013-06-04 07:16:00,
2013-06-03 23:31:00,53.0,47.0,29.62,East,95,0.0,0.0,79,0.00,,,0.01,weatherlink.com 1.10,2013-06-04 07:31:00,
2013-06-03 23:46:00,52.7,46.0,29.62,East,96,1.0,2.0,79,0.00,,,0.01,weatherlink.com 1.10,2013-06-04 07:46:00,